createdAt,value
2017-09-24T00:00:54.894Z,92.97
2017-09-24T00:03:23.281Z,93.53
2017-09-24T00:05:51.651Z,110.50
2017-09-24T00:08:20.048Z,96.03
2017-09-24T00:10:49.185Z,113.17
2017-09-24T00:13:17.590Z,95.67
2017-09-24T00:15:45.964Z,99.20
2017-09-24T00:18:14.334Z,107.43
2017-09-24T00:20:42.796Z,96.60
2017-09-24T00:23:11.265Z,113.20
2017-09-24T00:25:39.447Z,117.20
2017-09-24T00:28:07.808Z,98.30
2017-09-24T00:30:36.070Z,107.83
2017-09-24T00:33:04.425Z,101.97
2017-09-24T00:35:32.600Z,105.80
2017-09-24T00:38:01.740Z,116.13
2017-09-24T00:40:29.934Z,108.70
2017-09-24T00:42:57.967Z,107.90
2017-09-24T00:45:26.327Z,104.10
2017-09-24T00:47:54.710Z,103.37
2017-09-24T00:50:23.322Z,93.13
2017-09-24T00:52:51.727Z,99.97
2017-09-24T00:55:19.413Z,106.87
2017-09-24T00:57:47.399Z,103.93
2017-09-24T01:00:15.093Z,106.73
2017-09-24T01:02:43.458Z,127.80
2017-09-24T01:05:11.852Z,97.90
2017-09-24T01:07:40.390Z,103.63
2017-09-24T01:10:08.839Z,123.57
2017-09-24T01:12:37.196Z,112.13
2017-09-24T01:15:05.218Z,120.87
2017-09-24T01:17:33.601Z,126.70
2017-09-24T01:20:01.642Z,135.03
2017-09-24T01:22:30.062Z,123.63
2017-09-24T01:24:58.306Z,113.70
2017-09-24T01:27:26.787Z,116.70
2017-09-24T01:29:55.570Z,122.57
2017-09-24T01:32:23.598Z,125.70
2017-09-24T01:34:51.622Z,134.53
2017-09-24T01:37:19.666Z,122.20
2017-09-24T01:39:48.021Z,127.77
2017-09-24T01:42:17.199Z,104.23
2017-09-24T01:44:45.214Z,116.97
2017-09-24T01:47:13.602Z,113.03
2017-09-24T01:49:41.651Z,111.43
2017-09-24T01:52:09.668Z,105.47
2017-09-24T01:54:37.893Z,114.97
2017-09-24T01:57:05.568Z,124.23
2017-09-24T01:59:33.596Z,100.20
2017-09-24T02:02:01.971Z,111.63
2017-09-24T02:04:30.401Z,95.13
2017-09-24T02:06:58.769Z,100.00
2017-09-24T02:09:27.139Z,97.47
2017-09-24T02:11:56.226Z,106.53
2017-09-24T02:14:25.005Z,98.93
2017-09-24T02:16:53.364Z,106.70
2017-09-24T02:19:21.736Z,95.83
2017-09-24T02:21:50.437Z,106.47
2017-09-24T02:24:18.818Z,108.30
2017-09-24T02:26:47.205Z,105.70
2017-09-24T02:29:15.591Z,101.83
2017-09-24T02:31:43.770Z,95.17
2017-09-24T02:34:12.147Z,99.77
2017-09-24T02:36:40.513Z,90.73
2017-09-24T02:39:08.886Z,90.33
2017-09-24T02:41:37.262Z,89.70
2017-09-24T02:44:05.441Z,78.60
2017-09-24T02:46:34.489Z,84.47
2017-09-24T02:49:02.871Z,83.20
2017-09-24T02:51:31.234Z,90.17
2017-09-24T02:54:00.371Z,84.60
2017-09-24T02:56:28.726Z,82.20
2017-09-24T02:58:57.091Z,90.27
2017-09-24T03:01:25.466Z,93.77
2017-09-24T03:03:53.891Z,90.30
2017-09-24T03:06:22.366Z,95.90
2017-09-24T03:08:50.743Z,89.27
2017-09-24T03:11:19.121Z,91.63
2017-09-24T03:13:47.154Z,105.27
2017-09-24T03:16:15.722Z,89.83
2017-09-24T03:18:44.087Z,88.07
2017-09-24T03:21:12.551Z,95.10
2017-09-24T03:23:40.904Z,105.63
2017-09-24T03:26:09.291Z,115.97
2017-09-24T03:28:39.164Z,104.20
2017-09-24T03:31:07.540Z,113.80
2017-09-24T03:33:36.105Z,113.33
2017-09-24T03:36:04.472Z,108.47
2017-09-24T03:38:32.842Z,108.43
2017-09-24T03:41:01.995Z,86.43
2017-09-24T03:43:30.378Z,87.37
2017-09-24T03:45:59.558Z,77.53
2017-09-24T03:48:28.002Z,97.53
2017-09-24T03:50:56.395Z,98.40
2017-09-24T03:53:24.782Z,80.47
2017-09-24T03:55:53.137Z,74.10
2017-09-24T03:58:21.509Z,76.20
2017-09-24T04:00:49.879Z,72.90
2017-09-24T04:03:18.250Z,79.43
2017-09-24T04:05:46.613Z,80.60
2017-09-24T04:08:15.009Z,82.23
2017-09-24T04:10:43.573Z,87.00
2017-09-24T04:13:11.938Z,83.83
2017-09-24T04:15:41.086Z,74.03
2017-09-24T04:18:09.471Z,73.80
2017-09-24T04:20:37.838Z,69.87
2017-09-24T04:23:06.220Z,70.00
2017-09-24T04:25:34.583Z,82.43
2017-09-24T04:28:02.950Z,73.60
2017-09-24T04:30:31.335Z,61.97
2017-09-24T04:32:59.729Z,72.63
2017-09-24T04:35:28.133Z,69.57
2017-09-24T04:37:57.632Z,67.43
2017-09-24T04:40:26.227Z,66.43
2017-09-24T04:42:54.631Z,71.40
2017-09-24T04:45:23.208Z,74.53
2017-09-24T04:47:51.592Z,72.87
2017-09-24T04:50:19.956Z,78.97
2017-09-24T04:52:48.319Z,67.73
2017-09-24T04:55:16.683Z,70.60
2017-09-24T04:57:45.814Z,77.00
2017-09-24T05:00:14.199Z,80.30
2017-09-24T05:02:42.759Z,72.83
2017-09-24T05:05:11.350Z,57.30
2017-09-24T05:07:39.708Z,65.37
2017-09-24T05:10:08.202Z,70.13
2017-09-24T05:12:36.599Z,71.50
2017-09-24T05:15:05.152Z,70.00
2017-09-24T05:17:33.529Z,60.83
2017-09-24T05:20:01.893Z,57.67
2017-09-24T05:22:30.258Z,63.33
2017-09-24T05:24:58.639Z,60.40
2017-09-24T05:27:27.133Z,67.73
2017-09-24T05:29:55.490Z,64.20
2017-09-24T05:32:23.531Z,87.07
2017-09-24T05:34:51.718Z,78.70
2017-09-24T05:37:20.123Z,67.70
2017-09-24T05:39:48.469Z,64.90
2017-09-24T05:42:17.613Z,73.20
2017-09-24T05:44:45.975Z,66.67
2017-09-24T05:47:14.387Z,61.23
2017-09-24T05:49:42.762Z,68.57
2017-09-24T05:52:11.303Z,72.73
2017-09-24T05:54:39.750Z,65.37
2017-09-24T05:57:08.154Z,66.23
2017-09-24T05:59:36.521Z,64.70
2017-09-24T06:02:04.896Z,58.20
2017-09-24T06:04:33.267Z,62.83
2017-09-24T06:07:01.868Z,63.73
2017-09-24T06:09:30.240Z,60.43
2017-09-24T06:11:58.632Z,59.23
2017-09-24T06:14:27.659Z,64.17
2017-09-24T06:16:56.044Z,57.50
2017-09-24T06:19:24.446Z,57.07
2017-09-24T06:21:52.801Z,61.50
2017-09-24T06:24:21.212Z,61.93
2017-09-24T06:26:49.590Z,56.40
2017-09-24T06:29:17.956Z,58.80
2017-09-24T06:31:46.349Z,56.53
2017-09-24T06:34:14.768Z,53.93
2017-09-24T06:36:44.148Z,58.97
2017-09-24T06:39:12.523Z,55.23
2017-09-24T06:41:40.917Z,59.57
2017-09-24T06:44:10.095Z,60.10
2017-09-24T06:46:38.508Z,56.30
2017-09-24T06:49:06.873Z,56.47
2017-09-24T06:51:35.266Z,53.17
2017-09-24T06:54:03.670Z,61.70
2017-09-24T06:56:32.071Z,58.73
2017-09-24T06:59:00.490Z,59.70
2017-09-24T07:01:29.136Z,78.00
2017-09-24T07:03:57.533Z,70.90
2017-09-24T07:06:25.910Z,75.63
2017-09-24T07:08:54.289Z,70.77
2017-09-24T07:11:23.492Z,76.13
2017-09-24T07:13:51.904Z,74.03
2017-09-24T07:16:20.429Z,81.90
2017-09-24T07:18:48.821Z,75.10
2017-09-24T07:21:17.455Z,67.73
2017-09-24T07:23:45.833Z,67.07
2017-09-24T07:26:15.326Z,71.97
2017-09-24T07:28:43.714Z,66.23
2017-09-24T07:31:11.973Z,68.80
2017-09-24T07:33:40.353Z,61.97
2017-09-24T07:36:08.729Z,62.27
2017-09-24T07:38:37.112Z,71.93
2017-09-24T07:41:05.580Z,63.83
2017-09-24T07:43:33.942Z,61.60
2017-09-24T07:46:02.404Z,58.10
2017-09-24T07:48:30.802Z,57.33
2017-09-24T07:50:59.229Z,55.47
2017-09-24T07:53:29.140Z,61.13
2017-09-24T07:55:57.547Z,64.00
2017-09-24T07:58:25.995Z,59.13
2017-09-24T08:00:54.384Z,64.50
2017-09-24T08:03:22.766Z,66.47
2017-09-24T08:05:51.127Z,67.70
2017-09-24T08:08:21.010Z,64.97
2017-09-24T08:10:49.396Z,80.17
2017-09-24T08:13:18.054Z,78.67
2017-09-24T08:15:46.417Z,84.47
2017-09-24T08:18:15.108Z,75.50
2017-09-24T08:20:44.898Z,73.10
2017-09-24T08:23:13.297Z,82.47
2017-09-24T08:25:41.693Z,76.07
2017-09-24T08:28:10.969Z,73.07
2017-09-24T08:30:39.414Z,74.13
2017-09-24T08:33:07.779Z,83.20
2017-09-24T08:35:36.177Z,81.17
2017-09-24T08:38:05.323Z,75.87
2017-09-24T08:40:33.771Z,83.07
2017-09-24T08:43:02.163Z,79.57
2017-09-24T08:45:30.617Z,78.17
2017-09-24T08:47:58.990Z,81.07
2017-09-24T08:50:27.178Z,70.13
2017-09-24T08:52:55.565Z,77.10
2017-09-24T08:55:23.941Z,82.33
2017-09-24T08:57:52.375Z,85.53
2017-09-24T09:00:20.758Z,72.17
2017-09-24T09:02:49.139Z,71.17
2017-09-24T09:05:17.503Z,73.40
2017-09-24T09:07:45.866Z,73.70
2017-09-24T09:10:14.229Z,75.20
2017-09-24T09:12:42.656Z,79.80
2017-09-24T09:15:11.035Z,69.63
2017-09-24T09:17:39.614Z,65.60
2017-09-24T09:20:07.991Z,75.10
2017-09-24T09:22:36.418Z,62.73
2017-09-24T09:25:04.777Z,65.10
2017-09-24T09:27:33.165Z,61.10
2017-09-24T09:30:01.538Z,66.17
2017-09-24T09:32:42.082Z,61.90
2017-09-24T09:35:20.155Z,69.80
2017-09-24T09:37:48.549Z,74.17
2017-09-24T09:40:16.748Z,75.90
2017-09-24T09:42:44.944Z,70.70
2017-09-24T09:45:24.523Z,72.90
2017-09-24T09:47:52.904Z,63.50
2017-09-24T09:50:21.133Z,64.30
2017-09-24T09:52:49.498Z,64.13
2017-09-24T09:55:17.862Z,66.40
2017-09-24T09:57:46.246Z,69.20
2017-09-24T10:00:14.598Z,67.77
2017-09-24T10:02:42.960Z,71.40
2017-09-24T10:05:11.340Z,69.30
2017-09-24T10:07:50.904Z,74.53
2017-09-24T10:10:19.316Z,65.60
2017-09-24T10:12:47.746Z,69.20
2017-09-24T10:15:15.980Z,72.17
2017-09-24T10:17:44.305Z,75.00
2017-09-24T10:20:13.285Z,75.13
2017-09-24T10:22:41.458Z,74.37
2017-09-24T10:25:10.304Z,76.10
2017-09-24T10:27:38.672Z,71.13
2017-09-24T10:30:18.429Z,77.37
2017-09-24T10:32:46.615Z,74.80
2017-09-24T10:35:17.057Z,81.07
2017-09-24T10:37:45.439Z,73.17
2017-09-24T10:40:13.801Z,83.57
2017-09-24T10:42:41.991Z,81.27
2017-09-24T10:45:10.403Z,80.80
2017-09-24T10:47:38.795Z,78.97
2017-09-24T10:50:07.278Z,79.60
2017-09-24T10:52:35.679Z,86.10
2017-09-24T10:55:04.057Z,92.23
2017-09-24T10:57:32.454Z,84.33
2017-09-24T11:00:00.829Z,81.73
2017-09-24T11:02:29.237Z,81.70
2017-09-24T11:04:57.509Z,83.63
2017-09-24T11:07:25.744Z,86.73
2017-09-24T11:09:54.147Z,76.80
2017-09-24T11:12:22.531Z,88.90
2017-09-24T11:14:50.892Z,87.63
2017-09-24T11:17:19.266Z,77.07
2017-09-24T11:19:47.802Z,83.00
2017-09-24T11:22:16.167Z,73.80
2017-09-24T11:24:44.337Z,81.03
2017-09-24T11:27:12.724Z,76.17
2017-09-24T11:29:41.220Z,83.33
2017-09-24T11:32:09.789Z,76.40
2017-09-24T11:34:38.187Z,82.07
2017-09-24T11:37:06.584Z,78.60
2017-09-24T11:39:34.951Z,79.47
2017-09-24T11:42:03.330Z,84.33
2017-09-24T11:44:31.717Z,76.37
2017-09-24T11:47:00.128Z,76.37
2017-09-24T11:49:28.704Z,73.77
2017-09-24T11:51:58.020Z,76.60
2017-09-24T11:54:26.485Z,65.40
2017-09-24T11:56:55.015Z,62.20
2017-09-24T11:59:23.397Z,67.20
2017-09-24T12:01:51.609Z,67.27
2017-09-24T12:04:20.160Z,60.60
2017-09-24T12:06:48.566Z,57.73
2017-09-24T12:09:16.927Z,56.07
2017-09-24T12:11:45.396Z,59.00
2017-09-24T12:14:14.535Z,51.83
2017-09-24T12:16:42.889Z,48.63
2017-09-24T12:19:11.281Z,43.43
2017-09-24T12:21:39.647Z,40.60
2017-09-24T12:24:08.048Z,41.97
2017-09-24T12:26:36.418Z,40.93
2017-09-24T12:29:04.976Z,40.70
2017-09-24T12:31:33.158Z,40.13
2017-09-24T12:34:01.535Z,41.57
2017-09-24T12:36:29.901Z,38.40
2017-09-24T12:38:58.290Z,44.80
2017-09-24T12:41:26.852Z,34.50
2017-09-24T12:43:56.004Z,32.93
2017-09-24T12:46:24.364Z,34.50
2017-09-24T12:48:52.768Z,36.67
2017-09-24T12:51:21.277Z,34.73
2017-09-24T12:53:49.669Z,35.43
2017-09-24T12:56:18.056Z,32.70
2017-09-24T12:58:46.439Z,33.83
2017-09-24T13:01:14.831Z,33.50
2017-09-24T13:03:43.244Z,32.77
2017-09-24T13:06:12.426Z,29.30
2017-09-24T13:08:40.809Z,26.83
2017-09-24T13:11:09.167Z,27.27
2017-09-24T13:13:37.594Z,29.00
2017-09-24T13:16:06.266Z,31.00
2017-09-24T13:18:34.750Z,26.37
2017-09-24T13:21:03.121Z,24.73
2017-09-24T13:23:31.509Z,22.83
2017-09-24T13:26:00.118Z,22.27
2017-09-24T13:28:28.478Z,23.07
2017-09-24T13:30:56.869Z,24.73
2017-09-24T13:33:25.269Z,26.60
2017-09-24T13:35:53.670Z,23.23
2017-09-24T13:38:22.830Z,23.20
2017-09-24T13:40:51.211Z,24.30
2017-09-24T13:43:19.581Z,23.53
2017-09-24T13:45:47.960Z,24.83
2017-09-24T13:48:16.327Z,27.23
2017-09-24T13:50:45.092Z,23.70
2017-09-24T13:53:12.770Z,25.77
2017-09-24T13:55:41.172Z,23.47
2017-09-24T13:58:09.566Z,22.53
2017-09-24T14:00:37.928Z,22.83
2017-09-24T14:03:06.303Z,22.60
2017-09-24T14:05:34.659Z,20.27
2017-09-24T14:08:03.038Z,21.90
2017-09-24T14:10:31.463Z,21.17
2017-09-24T14:12:59.825Z,21.97
2017-09-24T14:15:28.418Z,21.67
2017-09-24T14:17:56.798Z,20.17
2017-09-24T14:20:25.246Z,22.23
2017-09-24T14:22:53.647Z,21.13
2017-09-24T14:25:21.350Z,21.10
2017-09-24T14:27:49.731Z,22.03
2017-09-24T14:30:18.871Z,21.70
2017-09-24T14:32:47.952Z,20.93
2017-09-24T14:35:16.572Z,24.93
2017-09-24T14:37:44.929Z,23.90
2017-09-24T14:40:13.319Z,21.90
2017-09-24T14:42:41.691Z,25.87
2017-09-24T14:45:09.887Z,21.20
2017-09-24T14:47:38.530Z,21.80
2017-09-24T14:50:07.114Z,23.13
2017-09-24T14:52:35.955Z,21.23
2017-09-24T14:55:05.194Z,22.27
2017-09-24T14:57:33.580Z,21.07
2017-09-24T15:00:01.977Z,20.40
2017-09-24T15:02:30.362Z,20.90
2017-09-24T15:04:58.796Z,21.40
2017-09-24T15:07:26.991Z,23.27
2017-09-24T15:09:55.203Z,21.70
2017-09-24T15:12:23.436Z,29.20
2017-09-24T15:14:51.637Z,22.53
2017-09-24T15:17:19.327Z,25.53
2017-09-24T15:19:47.128Z,24.30
2017-09-24T15:22:15.167Z,23.50
2017-09-24T15:24:43.538Z,25.37
2017-09-24T15:27:11.986Z,24.20
2017-09-24T15:29:40.162Z,24.03
2017-09-24T15:32:08.583Z,24.40
2017-09-24T15:34:36.941Z,24.93
2017-09-24T15:37:05.534Z,22.43
2017-09-24T15:39:33.905Z,24.13
2017-09-24T15:42:02.278Z,29.93
2017-09-24T15:44:30.673Z,30.00
2017-09-24T15:46:59.042Z,44.53
2017-09-24T15:49:27.415Z,42.33
2017-09-24T15:51:55.898Z,43.13
2017-09-24T15:54:24.266Z,42.40
2017-09-24T15:56:52.650Z,42.30
2017-09-24T15:59:21.121Z,36.83
2017-09-24T16:01:49.937Z,41.13
2017-09-24T16:04:18.297Z,44.20
2017-09-24T16:06:46.667Z,37.90
2017-09-24T16:09:15.090Z,39.63
2017-09-24T16:11:43.269Z,39.27
2017-09-24T16:14:12.214Z,38.50
2017-09-24T16:16:40.578Z,37.23
2017-09-24T16:19:09.167Z,42.57
2017-09-24T16:21:37.543Z,39.53
2017-09-24T16:24:05.913Z,41.93
2017-09-24T16:26:34.286Z,40.10
2017-09-24T16:29:02.771Z,40.37
2017-09-24T16:31:31.195Z,39.90
2017-09-24T16:33:59.379Z,41.97
2017-09-24T16:36:27.582Z,39.17
2017-09-24T16:38:55.790Z,41.20
2017-09-24T16:41:24.253Z,41.40
2017-09-24T16:43:52.442Z,42.80
2017-09-24T16:46:20.646Z,41.37
2017-09-24T16:48:49.811Z,38.63
2017-09-24T16:51:18.352Z,41.73
2017-09-24T16:53:46.709Z,45.27
2017-09-24T16:56:14.916Z,41.10
2017-09-24T16:58:43.299Z,38.03
2017-09-24T17:01:11.661Z,42.93
2017-09-24T17:03:39.862Z,39.57
2017-09-24T17:06:08.227Z,40.47
2017-09-24T17:08:36.602Z,41.77
2017-09-24T17:11:04.991Z,41.80
2017-09-24T17:13:33.427Z,41.27
2017-09-24T17:16:01.808Z,40.60
2017-09-24T17:18:30.182Z,42.97
2017-09-24T17:20:58.575Z,38.97
2017-09-24T17:23:26.960Z,41.57
2017-09-24T17:25:55.331Z,41.80
2017-09-24T17:28:23.529Z,38.77
2017-09-24T17:30:51.907Z,36.33
2017-09-24T17:33:20.088Z,40.20
2017-09-24T17:35:48.457Z,38.30
2017-09-24T17:38:16.832Z,41.40
2017-09-24T17:40:45.220Z,40.83
2017-09-24T17:43:13.632Z,40.07
2017-09-24T17:45:42.111Z,38.27
2017-09-24T17:48:10.467Z,43.13
2017-09-24T17:50:38.851Z,39.93
2017-09-24T17:53:07.199Z,44.53
2017-09-24T17:55:35.578Z,42.67
2017-09-24T17:58:04.351Z,44.50
2017-09-24T18:00:32.729Z,45.67
2017-09-24T18:03:01.110Z,45.40
2017-09-24T18:05:29.491Z,46.40
2017-09-24T18:07:58.825Z,41.63
2017-09-24T18:10:27.203Z,43.97
2017-09-24T18:12:55.653Z,53.03
2017-09-24T18:15:24.791Z,42.07
2017-09-24T18:17:53.029Z,45.10
2017-09-24T18:20:21.400Z,42.67
2017-09-24T18:22:50.557Z,42.70
2017-09-24T18:25:18.994Z,42.63
2017-09-24T18:27:47.351Z,43.87
2017-09-24T18:30:15.730Z,41.83
2017-09-24T18:32:44.955Z,44.07
2017-09-24T18:35:13.332Z,41.23
2017-09-24T18:37:41.793Z,43.87
2017-09-24T18:40:10.174Z,43.90
2017-09-24T18:42:38.790Z,40.83
2017-09-24T18:45:07.188Z,42.70
2017-09-24T18:47:36.166Z,42.37
2017-09-24T18:50:04.337Z,39.93
2017-09-24T18:52:32.526Z,43.30
2017-09-24T18:55:00.908Z,39.97
2017-09-24T18:57:29.313Z,38.70
2017-09-24T18:59:57.687Z,39.53
2017-09-24T19:02:26.076Z,41.77
2017-09-24T19:04:54.452Z,39.60
2017-09-24T19:07:24.541Z,39.33
2017-09-24T19:09:53.857Z,36.97
2017-09-24T19:12:22.242Z,36.93
2017-09-24T19:14:50.804Z,36.87
2017-09-24T19:17:19.395Z,35.90
2017-09-24T19:19:48.075Z,37.73
2017-09-24T19:22:16.530Z,37.33
2017-09-24T19:24:45.335Z,36.57
2017-09-24T19:27:13.820Z,37.90
2017-09-24T19:29:42.356Z,37.63
2017-09-24T19:32:10.876Z,34.60
2017-09-24T19:34:39.358Z,34.53
2017-09-24T19:37:07.761Z,36.07
2017-09-24T19:39:36.184Z,39.27
2017-09-24T19:42:04.585Z,35.50
2017-09-24T19:44:33.030Z,37.00
2017-09-24T19:47:01.229Z,39.27
2017-09-24T19:49:29.430Z,36.13
2017-09-24T19:51:57.606Z,38.80
2017-09-24T19:54:26.003Z,40.57
2017-09-24T19:56:54.216Z,36.50
2017-09-24T19:59:23.117Z,34.20
2017-09-24T20:01:51.564Z,34.90
2017-09-24T20:04:19.965Z,31.93
2017-09-24T20:06:48.356Z,31.47
2017-09-24T20:09:16.823Z,33.80
2017-09-24T20:11:45.203Z,31.40
2017-09-24T20:14:14.500Z,31.87
2017-09-24T20:16:42.891Z,28.83
2017-09-24T20:19:11.274Z,29.50
2017-09-24T20:21:39.649Z,30.13
2017-09-24T20:24:08.042Z,35.10
2017-09-24T20:26:38.119Z,29.80
2017-09-24T20:29:06.576Z,29.60
2017-09-24T20:31:34.995Z,30.07
2017-09-24T20:34:03.589Z,29.13
2017-09-24T20:36:32.031Z,28.83
2017-09-24T20:39:00.407Z,28.93
2017-09-24T20:41:28.777Z,32.50
2017-09-24T20:43:57.831Z,30.63
2017-09-24T20:46:26.224Z,37.17
2017-09-24T20:48:54.594Z,34.90
2017-09-24T20:51:23.927Z,34.80
2017-09-24T20:53:52.284Z,38.43
2017-09-24T20:56:20.642Z,36.20
2017-09-24T20:58:49.270Z,36.87
2017-09-24T21:01:17.638Z,37.10
2017-09-24T21:03:46.122Z,37.77
2017-09-24T21:06:14.505Z,42.37
2017-09-24T21:08:42.891Z,36.17
2017-09-24T21:11:11.276Z,40.30
2017-09-24T21:13:43.923Z,44.13
2017-09-24T21:16:12.309Z,31.27
2017-09-24T21:18:40.771Z,35.63
2017-09-24T21:21:09.131Z,32.90
2017-09-24T21:23:38.282Z,31.37
2017-09-24T21:26:06.828Z,36.10
2017-09-24T21:28:35.206Z,35.63
2017-09-24T21:31:03.575Z,36.40
2017-09-24T21:33:31.942Z,32.50
2017-09-24T21:36:00.564Z,35.30
2017-09-24T21:38:29.016Z,34.37
2017-09-24T21:40:58.068Z,35.37
2017-09-24T21:43:26.615Z,33.30
2017-09-24T21:45:54.986Z,31.30
2017-09-24T21:48:23.399Z,32.60
2017-09-24T21:50:51.849Z,32.40
2017-09-24T21:53:20.226Z,35.40
2017-09-24T21:55:48.600Z,32.87
2017-09-24T21:58:17.040Z,30.23
2017-09-24T22:00:45.727Z,32.63
2017-09-24T22:03:14.090Z,33.73
2017-09-24T22:05:42.477Z,35.20
2017-09-24T22:08:10.963Z,33.17
2017-09-24T22:10:39.369Z,34.53
2017-09-24T22:13:08.750Z,29.57
2017-09-24T22:15:37.123Z,32.73
2017-09-24T22:18:05.686Z,31.90
2017-09-24T22:20:34.165Z,29.20
2017-09-24T22:23:02.568Z,34.43
2017-09-24T22:25:31.165Z,32.07
2017-09-24T22:27:59.601Z,31.50
2017-09-24T22:30:28.000Z,37.80
2017-09-24T22:32:56.358Z,29.13
2017-09-24T22:35:24.738Z,36.33
2017-09-24T22:37:53.126Z,34.13
2017-09-24T22:40:21.518Z,32.63
2017-09-24T22:42:49.958Z,33.07
2017-09-24T22:45:18.330Z,34.07
2017-09-24T22:47:46.716Z,29.93
2017-09-24T22:50:15.317Z,36.63
2017-09-24T22:52:43.722Z,32.83
2017-09-24T22:55:12.249Z,34.93
2017-09-24T22:57:40.711Z,31.83
2017-09-24T23:00:09.089Z,33.13
2017-09-24T23:02:37.478Z,32.80
2017-09-24T23:05:05.868Z,33.00
2017-09-24T23:07:34.908Z,37.20
2017-09-24T23:10:03.279Z,35.50
2017-09-24T23:12:31.651Z,34.57
2017-09-24T23:15:00.040Z,33.77
2017-09-24T23:17:28.427Z,35.70
2017-09-24T23:19:57.392Z,35.77
2017-09-24T23:22:25.099Z,32.53
2017-09-24T23:24:53.451Z,33.93
2017-09-24T23:27:21.967Z,33.00
2017-09-24T23:29:50.480Z,34.27
2017-09-24T23:32:18.855Z,34.13
2017-09-24T23:34:48.725Z,33.70
2017-09-24T23:37:17.101Z,32.30
2017-09-24T23:39:45.476Z,31.53
2017-09-24T23:42:13.849Z,32.87
2017-09-24T23:44:42.231Z,32.73
2017-09-24T23:47:10.598Z,29.43
2017-09-24T23:49:39.040Z,29.77
2017-09-24T23:52:08.274Z,29.33
2017-09-24T23:54:36.717Z,33.47
2017-09-24T23:57:05.541Z,31.80
2017-09-24T23:59:33.909Z,33.30
